createdAt,value
2022-08-17T00:01:35.765Z,71.96
2022-08-17T00:04:18.623Z,72.07
2022-08-17T00:06:45.925Z,69.48
2022-08-17T00:09:18.851Z,68.26
2022-08-17T00:12:35.081Z,69.02
2022-08-17T00:14:36.462Z,67.06
2022-08-17T00:17:05.742Z,69.91
2022-08-17T00:19:32.934Z,68.01
2022-08-17T00:22:33.564Z,68.84
2022-08-17T00:24:48.229Z,73.17
2022-08-17T00:27:15.357Z,73.50
2022-08-17T00:29:42.616Z,74.43
2022-08-17T00:33:12.188Z,74.54
2022-08-17T00:34:59.393Z,74.02
2022-08-17T00:37:27.066Z,74.06
2022-08-17T00:39:54.367Z,74.52
2022-08-17T00:42:21.662Z,73.71
2022-08-17T00:44:49.248Z,70.70
2022-08-17T00:47:17.760Z,70.63
2022-08-17T00:49:44.983Z,74.20
2022-08-17T00:52:16.341Z,73.93
2022-08-17T00:54:47.124Z,69.81
2022-08-17T00:57:18.293Z,70.95
2022-08-17T00:59:51.145Z,71.25
2022-08-17T01:02:42.362Z,72.18
2022-08-17T01:05:15.345Z,74.08
2022-08-17T01:07:43.540Z,73.87
2022-08-17T01:10:58.996Z,75.47
2022-08-17T01:13:01.505Z,76.46
2022-08-17T01:15:30.030Z,75.55
2022-08-17T01:17:58.742Z,73.65
2022-08-17T01:20:26.509Z,77.47
2022-08-17T01:22:55.182Z,78.04
2022-08-17T01:25:22.935Z,73.53
2022-08-17T01:27:50.473Z,72.18
2022-08-17T01:30:58.777Z,72.14
2022-08-17T01:33:05.617Z,70.60
2022-08-17T01:35:32.868Z,72.00
2022-08-17T01:38:01.662Z,73.39
2022-08-17T01:40:33.738Z,72.25
2022-08-17T01:43:05.991Z,74.57
2022-08-17T01:45:42.782Z,74.72
2022-08-17T01:48:11.039Z,74.31
2022-08-17T01:50:41.166Z,71.97
2022-08-17T01:53:13.637Z,69.91
2022-08-17T01:55:45.429Z,68.99
2022-08-17T01:58:15.037Z,69.84
2022-08-17T02:00:59.654Z,73.07
2022-08-17T02:03:29.814Z,70.37
2022-08-17T02:05:57.487Z,70.61
2022-08-17T02:08:37.123Z,68.87
2022-08-17T02:11:12.266Z,70.24
2022-08-17T02:13:39.509Z,70.14
2022-08-17T02:16:06.701Z,68.71
2022-08-17T02:18:34.353Z,68.87
2022-08-17T02:21:01.616Z,69.29
2022-08-17T02:23:34.567Z,69.79
2022-08-17T02:26:02.422Z,69.76
2022-08-17T02:28:29.970Z,69.58
2022-08-17T02:31:00.886Z,70.39
2022-08-17T02:33:42.427Z,68.64
2022-08-17T02:36:13.007Z,69.83
2022-08-17T02:38:43.706Z,68.73
2022-08-17T02:41:10.902Z,68.79
2022-08-17T02:43:38.216Z,68.96
2022-08-17T02:46:05.813Z,71.50
2022-08-17T02:48:33.154Z,73.23
2022-08-17T02:51:01.044Z,73.69
2022-08-17T02:53:33.657Z,73.81
2022-08-17T02:56:05.038Z,71.21
2022-08-17T02:58:35.313Z,71.38
2022-08-17T03:01:04.871Z,70.60
2022-08-17T03:03:32.254Z,69.22
2022-08-17T03:05:59.911Z,68.24
2022-08-17T03:08:27.461Z,67.51
2022-08-17T03:10:54.700Z,68.21
2022-08-17T03:13:23.747Z,71.53
2022-08-17T03:15:51.508Z,72.74
2022-08-17T03:18:24.455Z,74.22
2022-08-17T03:20:53.506Z,76.17
2022-08-17T03:23:23.837Z,73.24
2022-08-17T03:25:53.825Z,71.17
2022-08-17T03:28:23.543Z,73.90
2022-08-17T03:30:50.850Z,74.39
2022-08-17T03:33:18.860Z,75.65
2022-08-17T03:35:47.035Z,71.89
2022-08-17T03:38:15.229Z,71.45
2022-08-17T03:40:58.481Z,70.67
2022-08-17T03:43:31.445Z,69.14
2022-08-17T03:45:59.330Z,69.15
2022-08-17T03:48:26.625Z,70.19
2022-08-17T03:50:54.264Z,69.59
2022-08-17T03:53:21.498Z,70.39
2022-08-17T03:55:48.710Z,70.87
2022-08-17T03:58:16.171Z,72.18
2022-08-17T04:00:44.783Z,73.41
2022-08-17T04:03:12.234Z,72.90
2022-08-17T04:05:39.862Z,73.10
2022-08-17T04:08:07.641Z,72.97
2022-08-17T04:10:38.448Z,74.05
2022-08-17T04:13:13.141Z,73.72
2022-08-17T04:15:40.449Z,72.05
2022-08-17T04:18:11.100Z,71.28
2022-08-17T04:20:38.697Z,71.60
2022-08-17T04:23:10.128Z,71.45
2022-08-17T04:25:39.542Z,72.05
2022-08-17T04:28:07.608Z,71.95
2022-08-17T04:30:44.379Z,71.20
2022-08-17T04:33:15.358Z,73.94
2022-08-17T04:35:44.837Z,74.27
2022-08-17T04:38:14.256Z,74.37
2022-08-17T04:40:42.461Z,73.54
2022-08-17T04:43:12.344Z,73.79
2022-08-17T04:45:41.053Z,74.28
2022-08-17T04:48:27.897Z,72.45
2022-08-17T04:51:05.693Z,71.70
2022-08-17T04:53:32.979Z,72.10
2022-08-17T04:56:00.266Z,71.45
2022-08-17T04:58:28.068Z,71.88
2022-08-17T05:00:55.308Z,72.88
2022-08-17T05:03:24.066Z,72.19
2022-08-17T05:05:51.896Z,71.61
2022-08-17T05:08:20.948Z,71.06
2022-08-17T05:10:48.984Z,71.48
2022-08-17T05:13:19.259Z,70.87
2022-08-17T05:15:49.290Z,70.89
2022-08-17T05:18:17.375Z,67.87
2022-08-17T05:20:46.491Z,67.69
2022-08-17T05:23:16.537Z,68.21
2022-08-17T05:25:47.586Z,68.13
2022-08-17T05:28:16.425Z,67.40
2022-08-17T05:30:44.865Z,66.31
2022-08-17T05:33:19.066Z,67.13
2022-08-17T05:35:52.697Z,66.37
2022-08-17T05:38:21.823Z,64.59
2022-08-17T05:40:49.218Z,65.52
2022-08-17T05:43:19.470Z,65.20
2022-08-17T05:45:56.905Z,64.41
2022-08-17T05:48:36.768Z,63.72
2022-08-17T05:51:47.184Z,63.72
2022-08-17T05:54:27.122Z,63.59
2022-08-17T05:57:24.861Z,62.87
2022-08-17T06:00:00.703Z,63.18
2022-08-17T06:02:47.058Z,62.93
2022-08-17T06:05:35.084Z,62.48
2022-08-17T06:08:12.577Z,62.49
2022-08-17T06:10:47.108Z,61.92
2022-08-17T06:13:20.507Z,59.96
2022-08-17T06:15:57.535Z,59.12
2022-08-17T06:18:29.351Z,60.05
2022-08-17T06:20:58.900Z,58.40
2022-08-17T06:23:34.553Z,57.61
2022-08-17T06:26:06.075Z,56.36
2022-08-17T06:28:40.865Z,54.92
2022-08-17T06:31:15.061Z,53.86
2022-08-17T06:33:42.855Z,54.86
2022-08-17T06:36:23.749Z,53.30
2022-08-17T06:39:03.360Z,52.90
2022-08-17T06:41:41.471Z,53.19
2022-08-17T06:44:50.302Z,52.65
2022-08-17T06:47:07.282Z,53.03
2022-08-17T06:49:46.235Z,51.62
2022-08-17T06:52:46.906Z,50.74
2022-08-17T06:55:18.728Z,50.09
2022-08-17T06:57:50.022Z,48.92
2022-08-17T07:00:21.258Z,49.09
2022-08-17T07:02:56.788Z,47.64
2022-08-17T07:05:30.779Z,48.58
2022-08-17T07:08:05.138Z,48.11
2022-08-17T07:10:41.122Z,46.68
2022-08-17T07:13:26.397Z,46.43
2022-08-17T07:16:01.236Z,45.56
2022-08-17T07:18:31.156Z,45.50
2022-08-17T07:21:06.759Z,45.75
2022-08-17T07:23:52.471Z,45.56
2022-08-17T07:26:23.592Z,43.88
2022-08-17T07:28:51.675Z,44.31
2022-08-17T07:31:25.286Z,44.40
2022-08-17T07:34:16.354Z,43.35
2022-08-17T07:37:08.478Z,41.92
2022-08-17T07:39:59.601Z,41.84
2022-08-17T07:42:44.914Z,41.14
2022-08-17T07:45:22.414Z,41.75
2022-08-17T07:47:50.987Z,40.62
2022-08-17T07:50:37.597Z,40.48
2022-08-17T07:53:17.990Z,40.21
2022-08-17T07:55:55.399Z,42.33
2022-08-17T07:58:46.437Z,41.01
2022-08-17T08:01:26.660Z,39.12
2022-08-17T08:04:58.998Z,38.31
2022-08-17T08:07:28.500Z,40.53
2022-08-17T08:10:13.281Z,38.40
2022-08-17T08:13:08.716Z,37.68
2022-08-17T08:15:53.750Z,35.40
2022-08-17T08:18:54.498Z,38.36
2022-08-17T08:21:27.622Z,37.21
2022-08-17T08:24:01.130Z,38.45
2022-08-17T08:26:37.167Z,36.51
2022-08-17T08:29:14.944Z,34.82
2022-08-17T08:31:57.809Z,36.56
2022-08-17T08:34:53.256Z,33.44
2022-08-17T08:37:35.532Z,34.15
2022-08-17T08:40:13.726Z,34.38
2022-08-17T08:42:50.906Z,35.17
2022-08-17T08:45:24.849Z,36.28
2022-08-17T08:48:12.815Z,33.82
2022-08-17T08:51:06.584Z,34.99
2022-08-17T08:53:45.020Z,35.80
2022-08-17T08:56:31.179Z,34.68
2022-08-17T08:59:10.514Z,31.97
2022-08-17T09:01:54.395Z,33.98
2022-08-17T09:05:12.743Z,32.82
2022-08-17T09:07:56.248Z,32.82
2022-08-17T09:10:42.966Z,33.89
2022-08-17T09:13:26.038Z,31.92
2022-08-17T09:16:11.159Z,33.02
2022-08-17T09:19:02.377Z,34.94
2022-08-17T09:21:48.569Z,35.59
2022-08-17T09:24:24.232Z,34.65
2022-08-17T09:26:59.106Z,35.15
2022-08-17T09:29:30.631Z,35.93
2022-08-17T09:32:03.512Z,36.04
2022-08-17T09:34:41.038Z,38.68
2022-08-17T09:37:20.734Z,35.12
2022-08-17T09:39:56.704Z,36.48
2022-08-17T09:42:29.798Z,34.76
2022-08-17T09:45:07.780Z,31.83
2022-08-17T09:47:41.157Z,34.04
2022-08-17T09:50:13.582Z,30.96
2022-08-17T09:52:43.029Z,33.30
2022-08-17T09:55:10.687Z,31.75
2022-08-17T09:57:51.016Z,31.85
2022-08-17T10:00:22.613Z,30.06
2022-08-17T10:03:11.482Z,32.20
2022-08-17T10:05:45.507Z,32.17
2022-08-17T10:08:24.505Z,30.79
2022-08-17T10:11:04.956Z,30.25
2022-08-17T10:13:40.306Z,32.51
2022-08-17T10:16:29.300Z,33.32
2022-08-17T10:19:13.006Z,33.82
2022-08-17T10:21:44.100Z,33.26
2022-08-17T10:24:17.701Z,33.47
2022-08-17T10:26:56.469Z,32.80
2022-08-17T10:29:29.008Z,32.33
2022-08-17T10:32:00.019Z,31.34
2022-08-17T10:34:51.308Z,33.33
2022-08-17T10:37:40.938Z,30.24
2022-08-17T10:40:32.943Z,31.65
2022-08-17T10:43:15.105Z,30.61
2022-08-17T10:45:48.550Z,29.42
2022-08-17T10:48:38.113Z,29.94
2022-08-17T10:51:08.709Z,30.56
2022-08-17T10:53:59.080Z,30.66
2022-08-17T10:56:58.104Z,28.38
2022-08-17T10:59:53.545Z,30.96
2022-08-17T11:02:27.664Z,29.11
2022-08-17T11:05:08.700Z,25.57
2022-08-17T11:08:07.392Z,27.01
2022-08-17T11:10:53.457Z,28.56
2022-08-17T11:13:34.742Z,30.01
2022-08-17T11:16:34.519Z,29.29
2022-08-17T11:19:31.229Z,30.84
2022-08-17T11:22:33.507Z,30.80
2022-08-17T11:25:14.809Z,28.99
2022-08-17T11:27:44.074Z,26.36
2022-08-17T11:30:17.389Z,28.54
2022-08-17T11:32:53.076Z,28.97
2022-08-17T11:35:38.028Z,27.98
2022-08-17T11:38:16.677Z,27.99
2022-08-17T11:41:07.943Z,26.11
2022-08-17T11:44:10.838Z,26.68
2022-08-17T11:46:55.976Z,26.49
2022-08-17T11:49:45.387Z,25.01
2022-08-17T11:52:38.496Z,25.46
2022-08-17T11:55:31.904Z,24.15
2022-08-17T11:57:58.494Z,23.82
2022-08-17T12:00:53.818Z,24.80
2022-08-17T12:03:54.310Z,27.44
2022-08-17T12:06:40.018Z,25.39
2022-08-17T12:09:14.096Z,27.68
2022-08-17T12:11:55.529Z,29.66
2022-08-17T12:15:08.370Z,27.40
2022-08-17T12:17:25.940Z,28.19
2022-08-17T12:20:15.178Z,27.62
2022-08-17T12:22:51.538Z,27.23
2022-08-17T12:25:24.459Z,27.37
2022-08-17T12:28:06.648Z,25.29
2022-08-17T12:30:35.208Z,25.56
2022-08-17T12:33:02.747Z,24.31
2022-08-17T12:35:35.347Z,24.88
2022-08-17T12:38:06.834Z,25.89
2022-08-17T12:40:57.936Z,28.88
2022-08-17T12:43:27.959Z,29.12
2022-08-17T12:45:57.409Z,26.63
2022-08-17T12:48:26.931Z,24.77
2022-08-17T12:51:01.698Z,25.97
2022-08-17T12:53:33.431Z,24.78
2022-08-17T12:56:06.921Z,24.42
2022-08-17T12:58:38.303Z,23.28
2022-08-17T13:01:08.783Z,24.13
2022-08-17T13:03:39.352Z,25.74
2022-08-17T13:06:11.421Z,21.46
2022-08-17T13:08:43.853Z,23.58
2022-08-17T13:11:19.808Z,23.14
2022-08-17T13:13:49.245Z,23.34
2022-08-17T13:16:19.560Z,22.95
2022-08-17T13:18:49.038Z,23.61
2022-08-17T13:21:26.237Z,25.48
2022-08-17T13:23:56.476Z,25.08
2022-08-17T13:26:29.377Z,23.52
2022-08-17T13:28:57.439Z,24.81
2022-08-17T13:31:44.057Z,24.84
2022-08-17T13:34:34.895Z,21.77
2022-08-17T13:37:25.249Z,23.22
2022-08-17T13:39:56.184Z,22.99
2022-08-17T13:42:32.646Z,21.57
2022-08-17T13:45:01.198Z,20.21
2022-08-17T13:47:28.705Z,23.09
2022-08-17T13:49:56.140Z,21.37
2022-08-17T13:52:38.172Z,21.92
2022-08-17T13:55:19.733Z,22.62
2022-08-17T13:57:49.963Z,21.17
2022-08-17T14:00:33.588Z,23.29
2022-08-17T14:03:04.226Z,23.05
2022-08-17T14:05:32.120Z,22.18
2022-08-17T14:08:07.098Z,24.17
2022-08-17T14:10:36.832Z,24.68
2022-08-17T14:13:04.836Z,25.95
2022-08-17T14:15:53.976Z,23.35
2022-08-17T14:18:55.313Z,26.10
2022-08-17T14:21:07.559Z,26.89
2022-08-17T14:23:37.517Z,25.78
2022-08-17T14:26:05.191Z,23.79
2022-08-17T14:28:32.526Z,25.84
2022-08-17T14:31:00.490Z,27.03
2022-08-17T14:33:28.354Z,26.76
2022-08-17T14:35:55.715Z,24.72
2022-08-17T14:38:23.373Z,25.57
2022-08-17T14:40:52.293Z,25.09
2022-08-17T14:43:19.675Z,26.29
2022-08-17T14:45:47.721Z,26.42
2022-08-17T14:48:15.130Z,26.90
2022-08-17T14:50:43.705Z,26.40
2022-08-17T14:53:14.252Z,27.57
2022-08-17T14:55:41.365Z,25.32
2022-08-17T14:58:10.008Z,26.88
2022-08-17T15:00:38.389Z,26.96
2022-08-17T15:03:05.603Z,28.95
2022-08-17T15:05:36.066Z,27.46
2022-08-17T15:08:05.132Z,28.15
2022-08-17T15:10:33.142Z,27.19
2022-08-17T15:13:00.631Z,28.41
2022-08-17T15:15:29.830Z,25.80
2022-08-17T15:17:58.614Z,27.32
2022-08-17T15:20:28.802Z,27.19
2022-08-17T15:22:56.993Z,27.46
2022-08-17T15:25:25.848Z,30.79
2022-08-17T15:27:53.448Z,28.84
2022-08-17T15:30:21.464Z,25.36
2022-08-17T15:32:54.423Z,27.66
2022-08-17T15:35:28.169Z,25.87
2022-08-17T15:37:58.616Z,26.37
2022-08-17T15:40:26.029Z,27.09
2022-08-17T15:42:53.609Z,27.95
2022-08-17T15:45:23.979Z,29.06
2022-08-17T15:47:55.734Z,26.39
2022-08-17T15:50:23.036Z,28.04
2022-08-17T15:52:56.589Z,26.08
2022-08-17T15:55:24.896Z,27.10
2022-08-17T15:57:52.424Z,28.01
2022-08-17T16:00:20.443Z,28.86
2022-08-17T16:03:14.084Z,28.42
2022-08-17T16:05:36.947Z,27.85
2022-08-17T16:08:04.874Z,29.13
2022-08-17T16:10:35.588Z,28.92
2022-08-17T16:13:04.316Z,30.20
2022-08-17T16:15:32.239Z,29.37
2022-08-17T16:18:01.691Z,28.79
2022-08-17T16:20:29.014Z,28.28
2022-08-17T16:22:58.215Z,29.33
2022-08-17T16:25:52.182Z,29.53
2022-08-17T16:28:16.927Z,28.41
2022-08-17T16:31:03.339Z,28.96
2022-08-17T16:33:30.934Z,31.58
2022-08-17T16:35:58.395Z,29.99
2022-08-17T16:38:27.071Z,30.43
2022-08-17T16:40:54.768Z,29.85
2022-08-17T16:43:37.205Z,30.41
2022-08-17T16:46:29.435Z,34.25
2022-08-17T16:49:37.319Z,36.88
2022-08-17T16:52:08.347Z,35.80
2022-08-17T16:54:39.648Z,38.82
2022-08-17T17:01:20.224Z,43.63
2022-08-17T17:08:14.994Z,44.17
2022-08-17T17:11:22.790Z,44.62
2022-08-17T17:17:56.487Z,45.21
2022-08-17T17:20:40.545Z,46.97
2022-08-17T17:23:19.941Z,46.71
2022-08-17T17:26:01.679Z,48.41
2022-08-17T17:28:44.065Z,46.02
2022-08-17T17:31:15.676Z,46.69
2022-08-17T17:33:49.088Z,46.09
2022-08-17T17:36:24.944Z,45.90
2022-08-17T17:39:03.944Z,46.84
2022-08-17T17:41:44.273Z,47.34
2022-08-17T17:44:19.745Z,48.15
2022-08-17T17:47:17.196Z,48.09
2022-08-17T17:54:05.795Z,46.94
2022-08-17T17:57:32.322Z,46.75
2022-08-17T18:00:10.313Z,45.62
2022-08-17T18:02:51.207Z,45.93
2022-08-17T18:05:34.480Z,45.70
2022-08-17T18:08:14.415Z,46.50
2022-08-17T18:10:50.354Z,48.16
2022-08-17T18:13:27.315Z,48.09
2022-08-17T18:15:56.683Z,48.19
2022-08-17T18:18:32.725Z,48.52
2022-08-17T18:21:03.037Z,49.21
2022-08-17T18:23:31.001Z,48.44
2022-08-17T18:25:59.059Z,48.67
2022-08-17T18:28:29.235Z,48.67
2022-08-17T18:31:11.507Z,47.97
2022-08-17T18:33:40.855Z,49.83
2022-08-17T18:36:09.147Z,48.37
2022-08-17T18:38:38.706Z,48.99
2022-08-17T18:41:19.264Z,49.80
2022-08-17T18:44:00.950Z,50.25
2022-08-17T18:46:32.608Z,50.97
2022-08-17T18:49:02.171Z,51.33
2022-08-17T18:51:41.482Z,51.61
2022-08-17T18:54:17.494Z,52.28
2022-08-17T18:56:50.258Z,52.90
2022-08-17T18:59:31.865Z,51.54
2022-08-17T19:02:38.703Z,52.28
2022-08-17T19:05:17.261Z,52.79
2022-08-17T19:07:46.780Z,53.74
2022-08-17T19:10:23.259Z,54.04
2022-08-17T19:12:55.536Z,53.76
2022-08-17T19:15:34.415Z,54.85
2022-08-17T19:18:14.702Z,53.90
2022-08-17T19:20:47.650Z,53.64
2022-08-17T19:23:21.535Z,54.15
2022-08-17T19:25:50.928Z,53.31
2022-08-17T19:28:27.610Z,53.90
2022-08-17T19:30:57.735Z,54.40
2022-08-17T19:33:27.178Z,54.65
2022-08-17T19:36:05.050Z,53.83
2022-08-17T19:38:44.660Z,55.10
2022-08-17T19:41:19.260Z,55.74
2022-08-17T19:43:56.842Z,54.84
2022-08-17T19:46:35.729Z,56.43
2022-08-17T19:49:11.775Z,57.47
2022-08-17T19:51:46.709Z,57.89
2022-08-17T19:54:35.019Z,57.08
2022-08-17T19:57:07.202Z,58.65
2022-08-17T19:59:46.397Z,58.82
2022-08-17T20:02:24.001Z,59.66
2022-08-17T20:04:56.626Z,59.07
2022-08-17T20:07:28.880Z,57.21
2022-08-17T20:10:02.477Z,58.72
2022-08-17T20:12:34.159Z,57.61
2022-08-17T20:15:06.855Z,60.39
2022-08-17T20:17:37.795Z,61.53
2022-08-17T20:20:22.033Z,60.46
2022-08-17T20:22:57.432Z,59.67
2022-08-17T20:25:31.346Z,58.44
2022-08-17T20:28:06.361Z,58.88
2022-08-17T20:30:37.773Z,59.09
2022-08-17T20:33:06.686Z,58.69
2022-08-17T20:35:38.216Z,59.40
2022-08-17T20:38:08.819Z,58.86
2022-08-17T20:40:39.240Z,58.81
2022-08-17T20:43:43.251Z,59.54
2022-08-17T20:46:23.735Z,58.28
2022-08-17T20:48:56.182Z,59.05
2022-08-17T20:51:29.938Z,60.16
2022-08-17T20:54:34.117Z,61.11
2022-08-17T20:57:01.770Z,60.51
2022-08-17T21:00:09.243Z,59.88
2022-08-17T21:02:36.551Z,59.25
2022-08-17T21:05:30.102Z,59.35
2022-08-17T21:08:11.328Z,60.35
2022-08-17T21:10:40.425Z,60.71
2022-08-17T21:13:36.470Z,59.40
2022-08-17T21:16:21.970Z,60.27
2022-08-17T21:18:55.682Z,63.73
2022-08-17T21:21:30.064Z,63.59
2022-08-17T21:24:20.973Z,63.71
2022-08-17T21:26:58.407Z,60.31
2022-08-17T21:29:30.926Z,60.87
2022-08-17T21:32:19.039Z,65.62
2022-08-17T21:35:24.575Z,60.55
2022-08-17T21:37:56.390Z,62.42
2022-08-17T21:40:27.811Z,67.68
2022-08-17T21:42:57.625Z,62.51
2022-08-17T21:45:29.146Z,62.07
2022-08-17T21:48:10.326Z,66.49
2022-08-17T21:50:38.328Z,65.47
2022-08-17T21:53:06.153Z,63.24
2022-08-17T21:55:39.428Z,62.41
2022-08-17T21:58:23.198Z,64.11
2022-08-17T22:01:13.127Z,65.80
2022-08-17T22:03:41.259Z,62.60
2022-08-17T22:06:23.920Z,64.29
2022-08-17T22:09:00.310Z,65.29
2022-08-17T22:11:29.053Z,63.97
2022-08-17T22:14:05.510Z,62.44
2022-08-17T22:16:33.278Z,62.52
2022-08-17T22:19:00.980Z,62.59
2022-08-17T22:21:28.370Z,62.67
2022-08-17T22:24:01.910Z,63.82
2022-08-17T22:27:05.943Z,62.36
2022-08-17T22:29:57.905Z,61.90
2022-08-17T22:32:35.791Z,62.71
2022-08-17T22:35:34.572Z,62.79
2022-08-17T22:38:28.468Z,62.16
2022-08-17T22:41:12.618Z,62.36
2022-08-17T22:43:44.830Z,61.98
2022-08-17T22:46:12.802Z,62.50
2022-08-17T22:48:48.260Z,61.67
2022-08-17T22:51:20.532Z,62.56
2022-08-17T22:53:53.621Z,61.79
2022-08-17T22:56:25.157Z,61.86
2022-08-17T22:58:59.112Z,61.65
2022-08-17T23:01:29.312Z,61.85
2022-08-17T23:03:58.489Z,67.43
2022-08-17T23:06:25.782Z,67.44
2022-08-17T23:08:54.001Z,68.68
2022-08-17T23:11:22.060Z,69.31
2022-08-17T23:14:12.053Z,68.95
2022-08-17T23:16:40.750Z,66.38
2022-08-17T23:19:08.314Z,64.24
2022-08-17T23:21:37.225Z,63.97
2022-08-17T23:24:05.844Z,64.51
2022-08-17T23:26:35.952Z,65.34
2022-08-17T23:29:04.069Z,66.74
2022-08-17T23:31:33.926Z,63.43
2022-08-17T23:34:01.597Z,63.38
2022-08-17T23:36:29.287Z,64.04
2022-08-17T23:38:56.492Z,66.12
2022-08-17T23:41:24.256Z,66.09
2022-08-17T23:43:53.108Z,65.60
2022-08-17T23:46:20.351Z,64.66
2022-08-17T23:48:48.946Z,64.39
2022-08-17T23:51:21.107Z,65.74
2022-08-17T23:53:53.553Z,66.73
2022-08-17T23:56:21.619Z,65.26
2022-08-17T23:58:51.399Z,65.55
